sensor_id;sensor_type;location;lat;lon;timestamp;P1;durP1;ratioP1;P2;durP2;ratioP2
56657;SDS011;42530;52.240;19.354;2022-09-20T00:01:04;11.07;;;10.10;;
56657;SDS011;42530;52.240;19.354;2022-09-20T00:03:52;12.23;;;11.07;;
56657;SDS011;42530;52.240;19.354;2022-09-20T00:06:26;13.55;;;12.15;;
56657;SDS011;42530;52.240;19.354;2022-09-20T00:08:54;12.52;;;11.40;;
56657;SDS011;42530;52.240;19.354;2022-09-20T00:11:25;12.45;;;11.30;;
56657;SDS011;42530;52.240;19.354;2022-09-20T00:13:53;12.63;;;11.52;;
56657;SDS011;42530;52.240;19.354;2022-09-20T00:16:21;13.18;;;11.95;;
56657;SDS011;42530;52.240;19.354;2022-09-20T00:18:49;13.07;;;11.77;;
56657;SDS011;42530;52.240;19.354;2022-09-20T00:21:19;13.43;;;12.20;;
56657;SDS011;42530;52.240;19.354;2022-09-20T00:23:47;14.55;;;13.35;;
56657;SDS011;42530;52.240;19.354;2022-09-20T00:26:12;14.15;;;12.75;;
56657;SDS011;42530;52.240;19.354;2022-09-20T00:28:39;14.80;;;12.13;;
56657;SDS011;42530;52.240;19.354;2022-09-20T00:31:05;13.95;;;12.65;;
56657;SDS011;42530;52.240;19.354;2022-09-20T00:33:32;13.00;;;11.77;;
56657;SDS011;42530;52.240;19.354;2022-09-20T00:36:16;15.73;;;13.88;;
56657;SDS011;42530;52.240;19.354;2022-09-20T00:38:41;14.05;;;12.95;;
56657;SDS011;42530;52.240;19.354;2022-09-20T00:41:07;13.45;;;12.32;;
56657;SDS011;42530;52.240;19.354;2022-09-20T00:43:34;13.55;;;12.43;;
56657;SDS011;42530;52.240;19.354;2022-09-20T00:46:03;13.10;;;11.82;;
56657;SDS011;42530;52.240;19.354;2022-09-20T00:48:30;13.73;;;12.55;;
56657;SDS011;42530;52.240;19.354;2022-09-20T00:50:58;13.88;;;12.32;;
56657;SDS011;42530;52.240;19.354;2022-09-20T00:53:31;14.23;;;12.93;;
56657;SDS011;42530;52.240;19.354;2022-09-20T00:56:00;16.50;;;14.90;;
56657;SDS011;42530;52.240;19.354;2022-09-20T00:58:29;14.18;;;12.90;;
56657;SDS011;42530;52.240;19.354;2022-09-20T01:01:01;14.40;;;13.15;;
56657;SDS011;42530;52.240;19.354;2022-09-20T01:03:29;14.77;;;13.48;;
56657;SDS011;42530;52.240;19.354;2022-09-20T01:05:58;13.68;;;12.38;;
56657;SDS011;42530;52.240;19.354;2022-09-20T01:08:28;13.40;;;12.07;;
56657;SDS011;42530;52.240;19.354;2022-09-20T01:10:54;14.68;;;12.82;;
56657;SDS011;42530;52.240;19.354;2022-09-20T01:13:19;12.05;;;10.82;;
56657;SDS011;42530;52.240;19.354;2022-09-20T01:15:45;13.25;;;11.82;;
56657;SDS011;42530;52.240;19.354;2022-09-20T01:18:13;14.70;;;13.15;;
56657;SDS011;42530;52.240;19.354;2022-09-20T01:20:41;14.68;;;11.85;;
56657;SDS011;42530;52.240;19.354;2022-09-20T01:28:24;12.35;;;11.35;;
56657;SDS011;42530;52.240;19.354;2022-09-20T01:33:29;13.93;;;12.55;;
56657;SDS011;42530;52.240;19.354;2022-09-20T01:36:04;12.02;;;10.93;;
56657;SDS011;42530;52.240;19.354;2022-09-20T01:41:06;10.73;;;9.40;;
56657;SDS011;42530;52.240;19.354;2022-09-20T01:48:40;12.07;;;11.00;;
56657;SDS011;42530;52.240;19.354;2022-09-20T01:54:35;10.63;;;9.52;;
56657;SDS011;42530;52.240;19.354;2022-09-20T02:00:25;11.05;;;10.13;;
56657;SDS011;42530;52.240;19.354;2022-09-20T02:05:31;11.38;;;10.35;;
56657;SDS011;42530;52.240;19.354;2022-09-20T02:16:29;9.57;;;8.77;;
56657;SDS011;42530;52.240;19.354;2022-09-20T02:28:04;11.55;;;10.63;;
56657;SDS011;42530;52.240;19.354;2022-09-20T02:30:45;10.48;;;9.65;;
56657;SDS011;42530;52.240;19.354;2022-09-20T02:36:26;11.88;;;10.77;;
56657;SDS011;42530;52.240;19.354;2022-09-20T02:39:07;12.23;;;9.93;;
56657;SDS011;42530;52.240;19.354;2022-09-20T03:00:58;10.60;;;9.70;;
56657;SDS011;42530;52.240;19.354;2022-09-20T03:09:30;11.55;;;10.32;;
56657;SDS011;42530;52.240;19.354;2022-09-20T03:12:09;12.00;;;10.95;;
56657;SDS011;42530;52.240;19.354;2022-09-20T03:14:45;11.43;;;10.52;;
56657;SDS011;42530;52.240;19.354;2022-09-20T03:20:21;12.77;;;11.48;;
56657;SDS011;42530;52.240;19.354;2022-09-20T03:25:32;13.68;;;12.40;;
56657;SDS011;42530;52.240;19.354;2022-09-20T03:37:17;14.77;;;13.48;;
56657;SDS011;42530;52.240;19.354;2022-09-20T03:39:54;15.82;;;14.30;;
56657;SDS011;42530;52.240;19.354;2022-09-20T03:42:35;15.30;;;12.82;;
56657;SDS011;42530;52.240;19.354;2022-09-20T03:45:28;15.98;;;14.45;;
56657;SDS011;42530;52.240;19.354;2022-09-20T03:51:00;22.40;;;14.93;;
56657;SDS011;42530;52.240;19.354;2022-09-20T04:27:22;21.33;;;16.60;;
56657;SDS011;42530;52.240;19.354;2022-09-20T04:30:00;17.23;;;14.65;;
56657;SDS011;42530;52.240;19.354;2022-09-20T04:32:43;15.77;;;14.38;;
56657;SDS011;42530;52.240;19.354;2022-09-20T04:38:27;21.38;;;19.45;;
56657;SDS011;42530;52.240;19.354;2022-09-20T04:54:53;15.48;;;14.18;;
56657;SDS011;42530;52.240;19.354;2022-09-20T05:00:06;19.20;;;17.58;;
56657;SDS011;42530;52.240;19.354;2022-09-20T05:28:55;24.50;;;21.35;;
56657;SDS011;42530;52.240;19.354;2022-09-20T05:36:53;21.90;;;19.70;;
56657;SDS011;42530;52.240;19.354;2022-09-20T05:39:30;22.98;;;20.92;;
56657;SDS011;42530;52.240;19.354;2022-09-20T06:14:38;23.73;;;21.38;;
56657;SDS011;42530;52.240;19.354;2022-09-20T06:22:54;22.83;;;20.48;;
56657;SDS011;42530;52.240;19.354;2022-09-20T06:28:04;28.00;;;22.25;;
56657;SDS011;42530;52.240;19.354;2022-09-20T06:30:41;24.27;;;22.00;;
56657;SDS011;42530;52.240;19.354;2022-09-20T06:33:22;26.98;;;24.02;;
56657;SDS011;42530;52.240;19.354;2022-09-20T06:41:17;24.25;;;21.90;;
56657;SDS011;42530;52.240;19.354;2022-09-20T06:43:53;24.80;;;22.23;;
56657;SDS011;42530;52.240;19.354;2022-09-20T06:46:22;25.05;;;22.60;;
56657;SDS011;42530;52.240;19.354;2022-09-20T06:48:47;24.48;;;21.95;;
56657;SDS011;42530;52.240;19.354;2022-09-20T06:51:14;27.55;;;23.88;;
56657;SDS011;42530;52.240;19.354;2022-09-20T06:53:40;28.60;;;25.08;;
56657;SDS011;42530;52.240;19.354;2022-09-20T06:56:07;26.23;;;23.50;;
56657;SDS011;42530;52.240;19.354;2022-09-20T06:58:37;24.50;;;22.05;;
56657;SDS011;42530;52.240;19.354;2022-09-20T07:01:02;25.35;;;22.80;;
56657;SDS011;42530;52.240;19.354;2022-09-20T07:03:28;25.13;;;22.00;;
56657;SDS011;42530;52.240;19.354;2022-09-20T07:05:56;23.70;;;21.38;;
56657;SDS011;42530;52.240;19.354;2022-09-20T07:08:23;23.55;;;21.08;;
56657;SDS011;42530;52.240;19.354;2022-09-20T07:10:48;22.67;;;20.45;;
56657;SDS011;42530;52.240;19.354;2022-09-20T07:13:15;22.52;;;20.38;;
56657;SDS011;42530;52.240;19.354;2022-09-20T07:15:42;25.60;;;22.95;;
56657;SDS011;42530;52.240;19.354;2022-09-20T07:18:08;23.33;;;21.05;;
56657;SDS011;42530;52.240;19.354;2022-09-20T07:20:33;22.58;;;20.17;;
56657;SDS011;42530;52.240;19.354;2022-09-20T07:23:00;24.45;;;22.10;;
56657;SDS011;42530;52.240;19.354;2022-09-20T07:25:26;27.20;;;23.08;;
56657;SDS011;42530;52.240;19.354;2022-09-20T07:27:52;26.58;;;23.95;;
56657;SDS011;42530;52.240;19.354;2022-09-20T07:30:18;25.08;;;22.40;;
56657;SDS011;42530;52.240;19.354;2022-09-20T07:32:44;24.65;;;22.17;;
56657;SDS011;42530;52.240;19.354;2022-09-20T07:35:10;21.77;;;19.77;;
56657;SDS011;42530;52.240;19.354;2022-09-20T07:37:36;23.02;;;20.98;;
56657;SDS011;42530;52.240;19.354;2022-09-20T07:40:03;19.88;;;17.77;;
56657;SDS011;42530;52.240;19.354;2022-09-20T07:42:30;21.70;;;18.95;;
56657;SDS011;42530;52.240;19.354;2022-09-20T07:44:56;20.50;;;18.48;;
56657;SDS011;42530;52.240;19.354;2022-09-20T07:47:21;19.98;;;15.80;;
56657;SDS011;42530;52.240;19.354;2022-09-20T07:49:49;18.77;;;16.88;;
56657;SDS011;42530;52.240;19.354;2022-09-20T07:52:17;17.40;;;15.85;;
56657;SDS011;42530;52.240;19.354;2022-09-20T07:54:43;21.33;;;17.83;;
56657;SDS011;42530;52.240;19.354;2022-09-20T07:57:10;16.88;;;15.30;;
56657;SDS011;42530;52.240;19.354;2022-09-20T07:59:36;19.10;;;17.25;;
56657;SDS011;42530;52.240;19.354;2022-09-20T08:02:02;20.75;;;18.70;;
56657;SDS011;42530;52.240;19.354;2022-09-20T08:04:27;21.13;;;18.85;;
56657;SDS011;42530;52.240;19.354;2022-09-20T08:06:53;20.58;;;18.02;;
56657;SDS011;42530;52.240;19.354;2022-09-20T08:09:18;20.60;;;18.65;;
56657;SDS011;42530;52.240;19.354;2022-09-20T08:11:44;21.77;;;19.52;;
56657;SDS011;42530;52.240;19.354;2022-09-20T08:14:14;22.13;;;19.00;;
56657;SDS011;42530;52.240;19.354;2022-09-20T08:16:43;18.55;;;16.75;;
56657;SDS011;42530;52.240;19.354;2022-09-20T08:19:21;20.65;;;18.60;;
56657;SDS011;42530;52.240;19.354;2022-09-20T08:21:47;17.73;;;15.73;;
56657;SDS011;42530;52.240;19.354;2022-09-20T08:24:14;15.98;;;14.45;;
56657;SDS011;42530;52.240;19.354;2022-09-20T08:26:41;16.27;;;14.73;;
56657;SDS011;42530;52.240;19.354;2022-09-20T08:29:08;13.10;;;11.75;;
56657;SDS011;42530;52.240;19.354;2022-09-20T08:31:35;12.30;;;11.30;;
56657;SDS011;42530;52.240;19.354;2022-09-20T08:34:02;13.57;;;12.20;;
56657;SDS011;42530;52.240;19.354;2022-09-20T08:36:31;12.88;;;11.68;;
56657;SDS011;42530;52.240;19.354;2022-09-20T08:38:57;13.40;;;12.23;;
56657;SDS011;42530;52.240;19.354;2022-09-20T08:41:25;18.38;;;12.13;;
56657;SDS011;42530;52.240;19.354;2022-09-20T08:43:53;13.48;;;12.13;;
56657;SDS011;42530;52.240;19.354;2022-09-20T08:46:26;14.75;;;13.07;;
56657;SDS011;42530;52.240;19.354;2022-09-20T08:48:55;11.50;;;10.55;;
56657;SDS011;42530;52.240;19.354;2022-09-20T08:51:21;11.45;;;10.27;;
56657;SDS011;42530;52.240;19.354;2022-09-20T08:53:51;10.07;;;9.27;;
56657;SDS011;42530;52.240;19.354;2022-09-20T08:56:19;10.05;;;9.23;;
56657;SDS011;42530;52.240;19.354;2022-09-20T08:58:45;9.77;;;8.85;;
56657;SDS011;42530;52.240;19.354;2022-09-20T09:01:21;9.35;;;8.55;;
56657;SDS011;42530;52.240;19.354;2022-09-20T09:03:52;10.00;;;9.00;;
56657;SDS011;42530;52.240;19.354;2022-09-20T09:06:42;9.80;;;8.95;;
56657;SDS011;42530;52.240;19.354;2022-09-20T09:09:13;10.90;;;9.18;;
56657;SDS011;42530;52.240;19.354;2022-09-20T09:11:43;9.02;;;8.32;;
56657;SDS011;42530;52.240;19.354;2022-09-20T09:14:19;9.57;;;8.48;;
56657;SDS011;42530;52.240;19.354;2022-09-20T09:17:11;10.10;;;9.15;;
56657;SDS011;42530;52.240;19.354;2022-09-20T09:19:45;8.68;;;8.07;;
56657;SDS011;42530;52.240;19.354;2022-09-20T09:22:27;10.55;;;9.48;;
56657;SDS011;42530;52.240;19.354;2022-09-20T09:27:57;10.45;;;9.45;;
56657;SDS011;42530;52.240;19.354;2022-09-20T09:30:33;9.77;;;8.77;;
56657;SDS011;42530;52.240;19.354;2022-09-20T09:33:48;10.32;;;9.32;;
56657;SDS011;42530;52.240;19.354;2022-09-20T09:38:40;10.90;;;9.82;;
56657;SDS011;42530;52.240;19.354;2022-09-20T09:41:28;10.23;;;9.32;;
56657;SDS011;42530;52.240;19.354;2022-09-20T09:44:21;7.47;;;6.88;;
56657;SDS011;42530;52.240;19.354;2022-09-20T09:46:52;6.68;;;6.18;;
56657;SDS011;42530;52.240;19.354;2022-09-20T09:49:26;11.50;;;10.40;;
56657;SDS011;42530;52.240;19.354;2022-09-20T09:52:02;8.73;;;8.05;;
56657;SDS011;42530;52.240;19.354;2022-09-20T09:54:44;6.63;;;6.15;;
56657;SDS011;42530;52.240;19.354;2022-09-20T10:00:18;5.78;;;5.28;;
56657;SDS011;42530;52.240;19.354;2022-09-20T10:05:39;5.32;;;4.93;;
56657;SDS011;42530;52.240;19.354;2022-09-20T10:13:19;4.80;;;4.50;;
56657;SDS011;42530;52.240;19.354;2022-09-20T10:35:10;4.85;;;3.50;;
56657;SDS011;42530;52.240;19.354;2022-09-20T10:40:31;3.83;;;3.63;;
56657;SDS011;42530;52.240;19.354;2022-09-20T10:44:11;3.55;;;3.05;;
56657;SDS011;42530;52.240;19.354;2022-09-20T10:55:02;5.18;;;4.68;;
56657;SDS011;42530;52.240;19.354;2022-09-20T11:08:29;4.45;;;4.15;;
56657;SDS011;42530;52.240;19.354;2022-09-20T11:14:12;3.72;;;3.42;;
56657;SDS011;42530;52.240;19.354;2022-09-20T11:22:11;3.97;;;3.63;;
56657;SDS011;42530;52.240;19.354;2022-09-20T11:24:35;4.60;;;4.20;;
56657;SDS011;42530;52.240;19.354;2022-09-20T11:29:46;4.53;;;4.05;;
56657;SDS011;42530;52.240;19.354;2022-09-20T11:34:54;4.25;;;3.80;;
56657;SDS011;42530;52.240;19.354;2022-09-20T11:37:31;3.60;;;3.28;;
56657;SDS011;42530;52.240;19.354;2022-09-20T11:40:01;3.80;;;3.50;;
56657;SDS011;42530;52.240;19.354;2022-09-20T11:42:37;4.85;;;3.72;;
56657;SDS011;42530;52.240;19.354;2022-09-20T11:45:05;3.53;;;3.13;;
56657;SDS011;42530;52.240;19.354;2022-09-20T11:47:34;4.35;;;3.80;;
56657;SDS011;42530;52.240;19.354;2022-09-20T11:50:16;4.05;;;3.75;;
56657;SDS011;42530;52.240;19.354;2022-09-20T11:56:11;4.68;;;4.13;;
56657;SDS011;42530;52.240;19.354;2022-09-20T11:58:52;4.28;;;3.97;;
56657;SDS011;42530;52.240;19.354;2022-09-20T12:01:53;3.97;;;3.67;;
56657;SDS011;42530;52.240;19.354;2022-09-20T12:04:12;3.58;;;3.33;;
56657;SDS011;42530;52.240;19.354;2022-09-20T12:06:55;3.38;;;3.03;;
56657;SDS011;42530;52.240;19.354;2022-09-20T12:09:43;3.70;;;3.40;;
56657;SDS011;42530;52.240;19.354;2022-09-20T12:12:27;3.95;;;3.33;;
56657;SDS011;42530;52.240;19.354;2022-09-20T12:15:07;4.07;;;3.47;;
56657;SDS011;42530;52.240;19.354;2022-09-20T12:28:55;3.53;;;3.25;;
56657;SDS011;42530;52.240;19.354;2022-09-20T12:31:48;3.60;;;3.30;;
56657;SDS011;42530;52.240;19.354;2022-09-20T12:39:18;5.15;;;4.68;;
56657;SDS011;42530;52.240;19.354;2022-09-20T12:57:59;4.70;;;4.35;;
56657;SDS011;42530;52.240;19.354;2022-09-20T13:00:36;4.63;;;4.20;;
56657;SDS011;42530;52.240;19.354;2022-09-20T13:09:15;8.07;;;7.38;;
56657;SDS011;42530;52.240;19.354;2022-09-20T13:16:19;2.35;;;2.00;;
56657;SDS011;42530;52.240;19.354;2022-09-20T13:19:00;5.05;;;2.00;;
56657;SDS011;42530;52.240;19.354;2022-09-20T13:21:25;2.17;;;2.05;;
56657;SDS011;42530;52.240;19.354;2022-09-20T13:23:52;2.80;;;1.90;;
56657;SDS011;42530;52.240;19.354;2022-09-20T13:26:22;4.93;;;3.25;;
56657;SDS011;42530;52.240;19.354;2022-09-20T13:28:53;3.63;;;2.33;;
56657;SDS011;42530;52.240;19.354;2022-09-20T13:33:46;5.20;;;2.95;;
56657;SDS011;42530;52.240;19.354;2022-09-20T13:36:19;6.65;;;5.43;;
56657;SDS011;42530;52.240;19.354;2022-09-20T13:38:54;6.70;;;4.88;;
56657;SDS011;42530;52.240;19.354;2022-09-20T13:41:21;6.18;;;3.10;;
56657;SDS011;42530;52.240;19.354;2022-09-20T13:43:47;5.40;;;5.00;;
56657;SDS011;42530;52.240;19.354;2022-09-20T13:46:15;5.03;;;4.63;;
56657;SDS011;42530;52.240;19.354;2022-09-20T13:48:55;4.93;;;4.50;;
56657;SDS011;42530;52.240;19.354;2022-09-20T13:51:34;3.47;;;3.28;;
56657;SDS011;42530;52.240;19.354;2022-09-20T13:56:49;6.57;;;6.05;;
56657;SDS011;42530;52.240;19.354;2022-09-20T13:59:16;7.38;;;5.57;;
56657;SDS011;42530;52.240;19.354;2022-09-20T14:01:52;4.82;;;3.08;;
56657;SDS011;42530;52.240;19.354;2022-09-20T14:04:23;4.18;;;3.85;;
56657;SDS011;42530;52.240;19.354;2022-09-20T14:06:51;5.38;;;4.10;;
56657;SDS011;42530;52.240;19.354;2022-09-20T14:09:29;8.88;;;7.85;;
56657;SDS011;42530;52.240;19.354;2022-09-20T14:11:58;13.25;;;10.48;;
56657;SDS011;42530;52.240;19.354;2022-09-20T14:14:24;17.67;;;13.73;;
56657;SDS011;42530;52.240;19.354;2022-09-20T14:16:52;22.85;;;18.63;;
56657;SDS011;42530;52.240;19.354;2022-09-20T14:19:21;14.80;;;13.38;;
56657;SDS011;42530;52.240;19.354;2022-09-20T14:21:51;12.23;;;10.60;;
56657;SDS011;42530;52.240;19.354;2022-09-20T14:24:27;9.32;;;7.97;;
56657;SDS011;42530;52.240;19.354;2022-09-20T14:26:59;10.98;;;9.90;;
56657;SDS011;42530;52.240;19.354;2022-09-20T14:37:28;35.42;;;31.85;;
56657;SDS011;42530;52.240;19.354;2022-09-20T14:39:58;42.63;;;38.60;;
56657;SDS011;42530;52.240;19.354;2022-09-20T14:45:19;27.58;;;24.65;;
56657;SDS011;42530;52.240;19.354;2022-09-20T14:47:55;29.02;;;23.75;;
56657;SDS011;42530;52.240;19.354;2022-09-20T14:53:35;15.35;;;13.77;;
56657;SDS011;42530;52.240;19.354;2022-09-20T14:58:31;10.65;;;9.55;;
56657;SDS011;42530;52.240;19.354;2022-09-20T15:01:02;10.55;;;9.63;;
56657;SDS011;42530;52.240;19.354;2022-09-20T15:03:38;8.63;;;7.88;;
56657;SDS011;42530;52.240;19.354;2022-09-20T15:06:08;5.53;;;5.03;;
56657;SDS011;42530;52.240;19.354;2022-09-20T15:08:34;4.20;;;3.80;;
56657;SDS011;42530;52.240;19.354;2022-09-20T15:11:01;4.53;;;4.13;;
56657;SDS011;42530;52.240;19.354;2022-09-20T15:13:27;12.88;;;9.45;;
56657;SDS011;42530;52.240;19.354;2022-09-20T15:15:53;17.42;;;14.07;;
56657;SDS011;42530;52.240;19.354;2022-09-20T15:20:49;9.85;;;8.77;;
56657;SDS011;42530;52.240;19.354;2022-09-20T15:23:15;10.02;;;9.20;;
56657;SDS011;42530;52.240;19.354;2022-09-20T15:25:41;18.13;;;15.05;;
56657;SDS011;42530;52.240;19.354;2022-09-20T15:28:09;19.33;;;16.55;;
56657;SDS011;42530;52.240;19.354;2022-09-20T15:30:40;17.65;;;15.82;;
56657;SDS011;42530;52.240;19.354;2022-09-20T15:33:06;11.02;;;9.98;;
56657;SDS011;42530;52.240;19.354;2022-09-20T15:35:32;9.20;;;8.02;;
56657;SDS011;42530;52.240;19.354;2022-09-20T15:37:58;11.82;;;9.90;;
56657;SDS011;42530;52.240;19.354;2022-09-20T15:40:23;11.02;;;10.02;;
56657;SDS011;42530;52.240;19.354;2022-09-20T15:42:53;13.10;;;10.05;;
56657;SDS011;42530;52.240;19.354;2022-09-20T15:45:20;9.85;;;8.82;;
56657;SDS011;42530;52.240;19.354;2022-09-20T15:47:45;12.88;;;8.88;;
56657;SDS011;42530;52.240;19.354;2022-09-20T15:50:10;11.20;;;8.35;;
56657;SDS011;42530;52.240;19.354;2022-09-20T15:52:39;13.35;;;9.68;;
56657;SDS011;42530;52.240;19.354;2022-09-20T15:55:06;9.48;;;8.50;;
56657;SDS011;42530;52.240;19.354;2022-09-20T15:57:32;11.65;;;9.63;;
56657;SDS011;42530;52.240;19.354;2022-09-20T15:59:58;10.48;;;9.45;;
56657;SDS011;42530;52.240;19.354;2022-09-20T16:02:25;9.77;;;8.88;;
56657;SDS011;42530;52.240;19.354;2022-09-20T16:04:52;11.57;;;10.38;;
56657;SDS011;42530;52.240;19.354;2022-09-20T16:07:20;11.20;;;10.38;;
56657;SDS011;42530;52.240;19.354;2022-09-20T16:09:53;9.77;;;8.90;;
56657;SDS011;42530;52.240;19.354;2022-09-20T16:12:20;11.30;;;10.30;;
56657;SDS011;42530;52.240;19.354;2022-09-20T16:14:47;4.85;;;4.32;;
56657;SDS011;42530;52.240;19.354;2022-09-20T16:17:19;4.43;;;3.92;;
56657;SDS011;42530;52.240;19.354;2022-09-20T16:20:04;5.70;;;4.07;;
56657;SDS011;42530;52.240;19.354;2022-09-20T16:22:30;13.75;;;11.10;;
56657;SDS011;42530;52.240;19.354;2022-09-20T16:24:58;14.07;;;12.35;;
56657;SDS011;42530;52.240;19.354;2022-09-20T16:27:27;10.65;;;9.50;;
56657;SDS011;42530;52.240;19.354;2022-09-20T16:29:55;9.02;;;6.97;;
56657;SDS011;42530;52.240;19.354;2022-09-20T16:32:21;5.78;;;4.00;;
56657;SDS011;42530;52.240;19.354;2022-09-20T16:34:49;7.10;;;4.78;;
56657;SDS011;42530;52.240;19.354;2022-09-20T16:37:15;3.70;;;3.30;;
56657;SDS011;42530;52.240;19.354;2022-09-20T16:39:41;3.55;;;2.90;;
56657;SDS011;42530;52.240;19.354;2022-09-20T16:42:07;3.90;;;3.50;;
56657;SDS011;42530;52.240;19.354;2022-09-20T16:44:37;6.05;;;3.80;;
56657;SDS011;42530;52.240;19.354;2022-09-20T16:47:04;3.92;;;3.33;;
56657;SDS011;42530;52.240;19.354;2022-09-20T16:49:34;5.80;;;3.70;;
56657;SDS011;42530;52.240;19.354;2022-09-20T16:52:00;4.50;;;4.07;;
56657;SDS011;42530;52.240;19.354;2022-09-20T16:54:28;8.48;;;5.25;;
56657;SDS011;42530;52.240;19.354;2022-09-20T16:56:54;10.73;;;5.85;;
56657;SDS011;42530;52.240;19.354;2022-09-20T16:59:20;13.35;;;7.78;;
56657;SDS011;42530;52.240;19.354;2022-09-20T17:01:46;7.80;;;6.75;;
56657;SDS011;42530;52.240;19.354;2022-09-20T17:04:12;12.25;;;7.15;;
56657;SDS011;42530;52.240;19.354;2022-09-20T17:06:39;8.35;;;7.45;;
56657;SDS011;42530;52.240;19.354;2022-09-20T17:09:07;8.50;;;7.82;;
56657;SDS011;42530;52.240;19.354;2022-09-20T17:11:37;9.52;;;8.70;;
56657;SDS011;42530;52.240;19.354;2022-09-20T17:14:12;10.35;;;8.43;;
56657;SDS011;42530;52.240;19.354;2022-09-20T17:16:38;9.20;;;8.13;;
56657;SDS011;42530;52.240;19.354;2022-09-20T17:21:34;9.85;;;8.95;;
56657;SDS011;42530;52.240;19.354;2022-09-20T17:24:01;10.57;;;9.68;;
56657;SDS011;42530;52.240;19.354;2022-09-20T17:26:30;12.55;;;10.48;;
56657;SDS011;42530;52.240;19.354;2022-09-20T17:29:05;17.40;;;15.65;;
56657;SDS011;42530;52.240;19.354;2022-09-20T17:31:35;23.50;;;21.27;;
56657;SDS011;42530;52.240;19.354;2022-09-20T17:34:03;26.85;;;24.20;;
56657;SDS011;42530;52.240;19.354;2022-09-20T17:36:32;23.17;;;21.17;;
56657;SDS011;42530;52.240;19.354;2022-09-20T17:39:03;20.85;;;18.98;;
56657;SDS011;42530;52.240;19.354;2022-09-20T17:41:30;16.80;;;15.23;;
56657;SDS011;42530;52.240;19.354;2022-09-20T17:43:57;10.85;;;9.95;;
56657;SDS011;42530;52.240;19.354;2022-09-20T17:48:54;14.20;;;12.73;;
56657;SDS011;42530;52.240;19.354;2022-09-20T17:51:22;20.20;;;18.10;;
56657;SDS011;42530;52.240;19.354;2022-09-20T17:53:50;11.93;;;10.73;;
56657;SDS011;42530;52.240;19.354;2022-09-20T17:56:16;7.13;;;6.43;;
56657;SDS011;42530;52.240;19.354;2022-09-20T17:58:42;7.93;;;7.15;;
56657;SDS011;42530;52.240;19.354;2022-09-20T18:01:12;7.35;;;6.55;;
56657;SDS011;42530;52.240;19.354;2022-09-20T18:03:40;7.05;;;6.38;;
56657;SDS011;42530;52.240;19.354;2022-09-20T18:06:15;7.13;;;6.53;;
56657;SDS011;42530;52.240;19.354;2022-09-20T18:08:45;5.68;;;5.28;;
56657;SDS011;42530;52.240;19.354;2022-09-20T18:11:19;6.28;;;5.65;;
56657;SDS011;42530;52.240;19.354;2022-09-20T18:13:47;5.68;;;5.22;;
56657;SDS011;42530;52.240;19.354;2022-09-20T18:16:13;5.85;;;5.22;;
56657;SDS011;42530;52.240;19.354;2022-09-20T18:18:40;5.95;;;5.45;;
56657;SDS011;42530;52.240;19.354;2022-09-20T18:21:08;4.85;;;4.53;;
56657;SDS011;42530;52.240;19.354;2022-09-20T18:23:34;6.20;;;5.15;;
56657;SDS011;42530;52.240;19.354;2022-09-20T18:26:04;6.78;;;6.15;;
56657;SDS011;42530;52.240;19.354;2022-09-20T18:31:27;6.93;;;6.22;;
56657;SDS011;42530;52.240;19.354;2022-09-20T18:33:54;6.20;;;5.70;;
56657;SDS011;42530;52.240;19.354;2022-09-20T18:36:20;8.75;;;6.18;;
56657;SDS011;42530;52.240;19.354;2022-09-20T18:38:48;6.60;;;6.20;;
56657;SDS011;42530;52.240;19.354;2022-09-20T18:41:19;7.47;;;6.78;;
56657;SDS011;42530;52.240;19.354;2022-09-20T18:43:55;7.68;;;7.03;;
56657;SDS011;42530;52.240;19.354;2022-09-20T18:46:21;7.45;;;6.82;;
56657;SDS011;42530;52.240;19.354;2022-09-20T18:48:52;8.38;;;7.60;;
56657;SDS011;42530;52.240;19.354;2022-09-20T18:51:19;6.85;;;6.35;;
56657;SDS011;42530;52.240;19.354;2022-09-20T18:53:45;7.35;;;6.72;;
56657;SDS011;42530;52.240;19.354;2022-09-20T18:56:19;9.13;;;8.18;;
56657;SDS011;42530;52.240;19.354;2022-09-20T18:58:56;9.05;;;8.35;;
56657;SDS011;42530;52.240;19.354;2022-09-20T19:09:48;6.90;;;6.30;;
56657;SDS011;42530;52.240;19.354;2022-09-20T19:12:47;8.52;;;7.72;;
56657;SDS011;42530;52.240;19.354;2022-09-20T19:21:39;8.48;;;7.68;;
56657;SDS011;42530;52.240;19.354;2022-09-20T19:26:31;8.60;;;7.88;;
56657;SDS011;42530;52.240;19.354;2022-09-20T19:29:03;9.80;;;9.00;;
56657;SDS011;42530;52.240;19.354;2022-09-20T19:31:35;22.45;;;17.58;;
56657;SDS011;42530;52.240;19.354;2022-09-20T19:34:02;19.77;;;17.70;;
56657;SDS011;42530;52.240;19.354;2022-09-20T19:36:48;10.52;;;9.50;;
56657;SDS011;42530;52.240;19.354;2022-09-20T19:43:08;10.52;;;9.52;;
56657;SDS011;42530;52.240;19.354;2022-09-20T19:45:51;8.50;;;7.72;;
56657;SDS011;42530;52.240;19.354;2022-09-20T19:48:40;6.88;;;6.28;;
56657;SDS011;42530;52.240;19.354;2022-09-20T19:51:29;7.60;;;6.88;;
56657;SDS011;42530;52.240;19.354;2022-09-20T19:53:59;7.50;;;6.85;;
56657;SDS011;42530;52.240;19.354;2022-09-20T19:56:25;8.68;;;7.95;;
56657;SDS011;42530;52.240;19.354;2022-09-20T19:58:52;6.72;;;6.13;;
56657;SDS011;42530;52.240;19.354;2022-09-20T20:01:20;8.25;;;7.45;;
56657;SDS011;42530;52.240;19.354;2022-09-20T20:03:48;10.10;;;7.47;;
56657;SDS011;42530;52.240;19.354;2022-09-20T20:06:25;8.32;;;7.05;;
56657;SDS011;42530;52.240;19.354;2022-09-20T20:09:08;8.68;;;7.55;;
56657;SDS011;42530;52.240;19.354;2022-09-20T20:16:57;9.98;;;8.57;;
56657;SDS011;42530;52.240;19.354;2022-09-20T20:22:46;11.40;;;9.82;;
56657;SDS011;42530;52.240;19.354;2022-09-20T20:25:22;15.60;;;9.93;;
56657;SDS011;42530;52.240;19.354;2022-09-20T20:27:55;12.00;;;9.88;;
56657;SDS011;42530;52.240;19.354;2022-09-20T20:30:20;11.57;;;10.00;;
56657;SDS011;42530;52.240;19.354;2022-09-20T20:32:46;10.88;;;9.68;;
56657;SDS011;42530;52.240;19.354;2022-09-20T20:35:12;9.38;;;8.40;;
56657;SDS011;42530;52.240;19.354;2022-09-20T20:37:39;10.80;;;7.75;;
56657;SDS011;42530;52.240;19.354;2022-09-20T20:40:04;9.68;;;8.70;;
56657;SDS011;42530;52.240;19.354;2022-09-20T20:42:35;7.72;;;6.95;;
56657;SDS011;42530;52.240;19.354;2022-09-20T20:45:01;7.45;;;6.75;;
56657;SDS011;42530;52.240;19.354;2022-09-20T20:47:26;9.55;;;7.68;;
56657;SDS011;42530;52.240;19.354;2022-09-20T20:49:51;7.55;;;6.78;;
56657;SDS011;42530;52.240;19.354;2022-09-20T20:52:19;7.57;;;6.88;;
56657;SDS011;42530;52.240;19.354;2022-09-20T20:54:44;7.75;;;6.97;;
56657;SDS011;42530;52.240;19.354;2022-09-20T20:57:10;8.15;;;7.13;;
56657;SDS011;42530;52.240;19.354;2022-09-20T20:59:35;7.05;;;5.85;;
56657;SDS011;42530;52.240;19.354;2022-09-20T21:02:01;8.75;;;7.85;;
56657;SDS011;42530;52.240;19.354;2022-09-20T21:04:26;7.20;;;6.53;;
56657;SDS011;42530;52.240;19.354;2022-09-20T21:06:52;7.65;;;6.80;;
56657;SDS011;42530;52.240;19.354;2022-09-20T21:09:18;9.55;;;7.13;;
56657;SDS011;42530;52.240;19.354;2022-09-20T21:11:44;8.13;;;6.93;;
56657;SDS011;42530;52.240;19.354;2022-09-20T21:14:12;6.13;;;5.35;;
56657;SDS011;42530;52.240;19.354;2022-09-20T21:16:39;8.93;;;6.97;;
56657;SDS011;42530;52.240;19.354;2022-09-20T21:19:06;7.80;;;6.68;;
56657;SDS011;42530;52.240;19.354;2022-09-20T21:21:35;7.20;;;6.10;;